Time;durP1;ratioP1;P1;durP2;ratioP2;P2;SDS_P1;SDS_P2;PMS_P1;PMS_P2;Temp;Humidity;BMP_temperature;BMP_pressure;BME280_temperature;BME280_humidity;BME280_pressure;Samples;Min_cycle;Max_cycle;Signal;HPM_P1;HPM_P2
2023/12/03 00:00:11;;;;;;;25.17;15.60;;;;;;;;;;688632;28;1100;-68
2023/12/03 00:00:31;;;;;;;24.08;15.48;;;;;;;;;;689657;28;861;-68
2023/12/03 00:00:52;;;;;;;26.27;15.93;;;;;;;;;;689044;28;4291;-68
2023/12/03 00:01:12;;;;;;;26.55;15.98;;;;;;;;;;689821;28;967;-68
2023/12/03 00:01:33;;;;;;;25.17;15.65;;;;;;;;;;689981;28;861;-68
2023/12/03 00:01:53;;;;;;;24.90;15.63;;;;;;;;;;690182;28;845;-67
2023/12/03 00:02:14;;;;;;;23.02;14.95;;;;;;;;;;690075;28;1139;-69
2023/12/03 00:02:35;;;;;;;24.53;15.30;;;;;;;;;;690106;28;1049;-68
2023/12/03 00:02:55;;;;;;;24.50;15.63;;;;;;;;;;690249;28;944;-68
2023/12/03 00:03:15;;;;;;;23.23;15.35;;;;;;;;;;689570;28;1148;-66
2023/12/03 00:03:36;;;;;;;23.90;14.97;;;;;;;;;;690238;28;771;-67
2023/12/03 00:03:56;;;;;;;23.60;15.38;;;;;;;;;;689507;28;4496;-68
2023/12/03 00:04:16;;;;;;;23.23;14.97;;;;;;;;;;688921;28;1299;-68
2023/12/03 00:04:37;;;;;;;23.57;15.07;;;;;;;;;;690222;28;1919;-68
2023/12/03 00:04:58;;;;;;;24.15;15.15;;;;;;;;;;690085;28;834;-68
2023/12/03 00:05:19;;;;;;;24.90;15.17;;;;;;;;;;690211;28;805;-68
2023/12/03 00:05:39;;;;;;;24.58;15.02;;;;;;;;;;689531;28;1278;-68
2023/12/03 00:05:59;;;;;;;23.70;14.77;;;;;;;;;;685167;28;1281;-68
2023/12/03 00:06:20;;;;;;;25.45;15.68;;;;;;;;;;686452;28;1111;-68
2023/12/03 00:06:41;;;;;;;26.33;16.00;;;;;;;;;;684739;28;4513;-68
2023/12/03 00:07:05;;;;;;;24.88;15.80;;;;;;;;;;685276;28;1030;-68
2023/12/03 00:07:27;;;;;;;26.27;16.35;;;;;;;;;;687736;28;1091;-68
2023/12/03 00:07:49;;;;;;;27.40;16.00;;;;;;;;;;688774;28;834;-68
2023/12/03 00:08:11;;;;;;;26.65;16.30;;;;;;;;;;690345;28;1456;-68
2023/12/03 00:08:32;;;;;;;25.70;16.27;;;;;;;;;;693138;28;865;-68
2023/12/03 00:08:53;;;;;;;26.23;16.13;;;;;;;;;;692880;28;757;-68
2023/12/03 00:09:14;;;;;;;25.38;15.88;;;;;;;;;;689097;28;989;-68
2023/12/03 00:09:39;;;;;;;25.73;16.05;;;;;;;;;;689700;28;892;-68
2023/12/03 00:09:59;;;;;;;27.23;15.98;;;;;;;;;;686495;28;4826;-69
2023/12/03 00:10:20;;;;;;;25.83;15.40;;;;;;;;;;690255;28;789;-68
2023/12/03 00:10:41;;;;;;;23.67;14.57;;;;;;;;;;690144;28;947;-68
2023/12/03 00:11:01;;;;;;;24.17;15.77;;;;;;;;;;689195;28;1218;-68
2023/12/03 00:11:22;;;;;;;25.60;16.47;;;;;;;;;;690093;28;849;-68
2023/12/03 00:11:42;;;;;;;24.13;15.55;;;;;;;;;;690613;28;932;-67
2023/12/03 00:12:05;;;;;;;25.23;15.10;;;;;;;;;;689118;28;1175;-67
2023/12/03 00:12:25;;;;;;;24.75;15.40;;;;;;;;;;689797;28;1184;-67
2023/12/03 00:12:45;;;;;;;23.90;15.35;;;;;;;;;;689539;28;4518;-68
2023/12/03 00:13:06;;;;;;;24.90;15.47;;;;;;;;;;689984;28;1150;-68
2023/12/03 00:13:26;;;;;;;25.77;15.85;;;;;;;;;;690325;28;821;-67
2023/12/03 00:13:46;;;;;;;25.43;15.77;;;;;;;;;;687195;28;1123;-67
2023/12/03 00:14:07;;;;;;;26.60;15.63;;;;;;;;;;686288;28;1165;-67
2023/12/03 00:14:27;;;;;;;26.88;15.90;;;;;;;;;;686892;28;814;-68
2023/12/03 00:14:47;;;;;;;26.33;16.27;;;;;;;;;;686574;28;885;-68
2023/12/03 00:15:08;;;;;;;25.90;15.50;;;;;;;;;;684541;28;1637;-68
2023/12/03 00:15:28;;;;;;;25.70;14.95;;;;;;;;;;687069;28;941;-68
2023/12/03 00:15:48;;;;;;;25.13;15.17;;;;;;;;;;687978;28;4437;-68
2023/12/03 00:16:09;;;;;;;24.80;15.20;;;;;;;;;;690911;28;963;-67
2023/12/03 00:16:29;;;;;;;24.50;15.20;;;;;;;;;;687310;28;897;-68
2023/12/03 00:16:50;;;;;;;23.23;15.02;;;;;;;;;;687201;28;854;-68
2023/12/03 00:17:10;;;;;;;24.43;15.13;;;;;;;;;;684776;28;1000;-68
2023/12/03 00:17:30;;;;;;;24.70;15.07;;;;;;;;;;685747;28;1263;-68
2023/12/03 00:17:51;;;;;;;24.60;15.23;;;;;;;;;;684532;28;892;-68
2023/12/03 00:18:12;;;;;;;24.43;15.77;;;;;;;;;;685821;28;896;-68
2023/12/03 00:18:32;;;;;;;23.60;15.00;;;;;;;;;;686301;28;833;-68
2023/12/03 00:18:52;;;;;;;24.73;15.10;;;;;;;;;;685949;28;4383;-68
2023/12/03 00:19:13;;;;;;;24.57;15.40;;;;;;;;;;686844;28;1385;-68
2023/12/03 00:19:33;;;;;;;23.60;14.95;;;;;;;;;;689061;28;869;-68
2023/12/03 00:19:53;;;;;;;24.03;14.67;;;;;;;;;;689878;28;832;-67
2023/12/03 00:20:13;;;;;;;24.33;15.10;;;;;;;;;;689201;28;1223;-68
2023/12/03 00:20:34;;;;;;;24.42;15.20;;;;;;;;;;690457;28;905;-66
2023/12/03 00:20:54;;;;;;;26.00;15.43;;;;;;;;;;689380;28;4356;-68
2023/12/03 00:21:14;;;;;;;25.43;14.73;;;;;;;;;;689220;28;1738;-68
2023/12/03 00:21:35;;;;;;;24.13;14.52;;;;;;;;;;690424;28;766;-68
2023/12/03 00:21:55;;;;;;;24.47;14.60;;;;;;;;;;689229;28;4284;-68
2023/12/03 00:22:15;;;;;;;25.08;15.05;;;;;;;;;;688598;28;1802;-68
2023/12/03 00:22:36;;;;;;;25.37;15.53;;;;;;;;;;690747;28;1036;-68
2023/12/03 00:22:56;;;;;;;25.27;15.55;;;;;;;;;;689842;28;793;-68
2023/12/03 00:23:17;;;;;;;25.23;15.43;;;;;;;;;;689295;28;1402;-68
2023/12/03 00:23:37;;;;;;;24.67;15.40;;;;;;;;;;690231;28;1321;-68
2023/12/03 00:23:57;;;;;;;25.43;15.17;;;;;;;;;;690161;28;895;-67
2023/12/03 00:24:18;;;;;;;25.60;15.23;;;;;;;;;;688703;28;1713;-67
2023/12/03 00:24:38;;;;;;;26.23;15.65;;;;;;;;;;688222;28;1902;-68
2023/12/03 00:24:58;;;;;;;26.13;16.00;;;;;;;;;;688906;28;4405;-68
2023/12/03 00:25:19;;;;;;;25.13;15.45;;;;;;;;;;688861;28;1676;-67
2023/12/03 00:25:39;;;;;;;24.83;15.23;;;;;;;;;;689948;28;895;-68
2023/12/03 00:25:59;;;;;;;24.40;15.10;;;;;;;;;;688063;28;1626;-68
2023/12/03 00:26:20;;;;;;;26.25;15.40;;;;;;;;;;689302;28;861;-68
2023/12/03 00:26:40;;;;;;;24.53;15.17;;;;;;;;;;689351;28;906;-68
2023/12/03 00:27:01;;;;;;;23.42;14.35;;;;;;;;;;688528;28;2468;-68
2023/12/03 00:27:21;;;;;;;24.83;15.18;;;;;;;;;;690162;28;1086;-68
2023/12/03 00:27:41;;;;;;;24.33;15.70;;;;;;;;;;689359;28;4403;-68
2023/12/03 00:28:02;;;;;;;25.20;15.43;;;;;;;;;;689368;28;1796;-68
2023/12/03 00:28:22;;;;;;;25.77;15.63;;;;;;;;;;690385;28;983;-68
2023/12/03 00:28:42;;;;;;;27.10;15.93;;;;;;;;;;689957;28;984;-68
2023/12/03 00:29:03;;;;;;;24.90;15.10;;;;;;;;;;689081;28;2317;-68
2023/12/03 00:29:23;;;;;;;24.05;15.15;;;;;;;;;;689594;28;983;-68
2023/12/03 00:29:43;;;;;;;25.13;15.43;;;;;;;;;;690431;28;891;-68
2023/12/03 00:30:04;;;;;;;24.27;15.68;;;;;;;;;;689025;28;2070;-68
2023/12/03 00:30:24;;;;;;;25.77;15.43;;;;;;;;;;689606;28;927;-68
2023/12/03 00:30:44;;;;;;;26.38;15.32;;;;;;;;;;689469;28;5169;-68
2023/12/03 00:31:05;;;;;;;25.13;15.53;;;;;;;;;;690273;28;1092;-68
2023/12/03 00:31:25;;;;;;;25.23;15.37;;;;;;;;;;689365;28;774;-68
2023/12/03 00:31:45;;;;;;;25.40;15.52;;;;;;;;;;690132;28;871;-66
2023/12/03 00:32:06;;;;;;;25.43;15.43;;;;;;;;;;689937;28;1079;-67
2023/12/03 00:32:26;;;;;;;26.83;16.00;;;;;;;;;;689843;28;920;-68
2023/12/03 00:32:46;;;;;;;25.85;15.45;;;;;;;;;;689656;28;1288;-68
2023/12/03 00:33:06;;;;;;;25.00;15.07;;;;;;;;;;689285;28;1737;-68
2023/12/03 00:33:27;;;;;;;24.47;14.97;;;;;;;;;;690363;28;707;-68
2023/12/03 00:33:47;;;;;;;23.42;15.30;;;;;;;;;;689476;28;4331;-68
2023/12/03 00:34:07;;;;;;;25.17;15.37;;;;;;;;;;689505;28;1701;-67
2023/12/03 00:34:28;;;;;;;24.87;14.77;;;;;;;;;;690190;28;844;-67
2023/12/03 00:34:48;;;;;;;24.77;15.43;;;;;;;;;;690015;28;790;-68
2023/12/03 00:35:08;;;;;;;24.50;14.90;;;;;;;;;;689527;28;2149;-68
2023/12/03 00:35:28;;;;;;;25.03;14.83;;;;;;;;;;690565;28;928;-68
2023/12/03 00:35:49;;;;;;;24.80;15.30;;;;;;;;;;690247;28;864;-68
2023/12/03 00:36:09;;;;;;;27.30;15.67;;;;;;;;;;690304;28;2130;-68
2023/12/03 00:36:29;;;;;;;27.02;15.77;;;;;;;;;;690447;28;887;-66
2023/12/03 00:36:50;;;;;;;27.20;15.53;;;;;;;;;;689252;28;4249;-67
2023/12/03 00:37:10;;;;;;;26.10;15.57;;;;;;;;;;689174;28;1714;-68
2023/12/03 00:37:30;;;;;;;25.88;15.65;;;;;;;;;;690154;28;1092;-68
2023/12/03 00:37:50;;;;;;;26.90;15.60;;;;;;;;;;689743;28;1233;-68
2023/12/03 00:38:11;;;;;;;27.00;15.93;;;;;;;;;;689719;28;1531;-68
2023/12/03 00:38:31;;;;;;;27.08;16.38;;;;;;;;;;690336;28;981;-68
2023/12/03 00:38:51;;;;;;;25.17;15.77;;;;;;;;;;689832;28;1194;-68
2023/12/03 00:39:11;;;;;;;24.43;15.20;;;;;;;;;;689336;28;2424;-68
2023/12/03 00:39:32;;;;;;;25.15;15.40;;;;;;;;;;689666;28;809;-68
2023/12/03 00:39:52;;;;;;;26.60;15.97;;;;;;;;;;687431;28;4518;-68
2023/12/03 00:40:13;;;;;;;26.95;15.45;;;;;;;;;;688986;28;1585;-68
2023/12/03 00:40:33;;;;;;;27.27;15.10;;;;;;;;;;690300;28;880;-68
2023/12/03 00:40:53;;;;;;;27.40;15.30;;;;;;;;;;689731;28;801;-68
2023/12/03 00:41:14;;;;;;;25.47;14.83;;;;;;;;;;689013;28;1875;-68
2023/12/03 00:41:34;;;;;;;25.03;15.20;;;;;;;;;;690053;28;860;-66
2023/12/03 00:41:54;;;;;;;27.65;15.75;;;;;;;;;;690229;28;907;-65
2023/12/03 00:42:14;;;;;;;27.10;15.97;;;;;;;;;;689306;28;2338;-65
2023/12/03 00:42:35;;;;;;;27.40;15.80;;;;;;;;;;690394;28;999;-67
2023/12/03 00:42:55;;;;;;;27.17;15.95;;;;;;;;;;689292;28;4849;-67
2023/12/03 00:43:15;;;;;;;27.43;16.20;;;;;;;;;;689086;28;1383;-68
2023/12/03 00:43:35;;;;;;;28.37;16.23;;;;;;;;;;690040;28;920;-68
2023/12/03 00:43:56;;;;;;;26.80;15.25;;;;;;;;;;689757;28;896;-67
2023/12/03 00:44:18;;;;;;;27.73;15.83;;;;;;;;;;689114;28;2124;-68
2023/12/03 00:44:38;;;;;;;26.98;16.05;;;;;;;;;;690249;28;1902;-67
2023/12/03 00:44:58;;;;;;;28.23;16.20;;;;;;;;;;690039;28;900;-68
2023/12/03 00:45:19;;;;;;;27.20;16.15;;;;;;;;;;688997;28;2261;-65
2023/12/03 00:45:39;;;;;;;25.33;15.60;;;;;;;;;;689719;28;4341;-67
2023/12/03 00:46:00;;;;;;;25.10;15.30;;;;;;;;;;690535;28;990;-67
2023/12/03 00:46:21;;;;;;;25.10;15.35;;;;;;;;;;687917;28;968;-67
2023/12/03 00:46:41;;;;;;;25.70;15.98;;;;;;;;;;687397;28;861;-67
2023/12/03 00:47:02;;;;;;;25.80;15.40;;;;;;;;;;686382;28;1779;-68
2023/12/03 00:47:22;;;;;;;25.52;15.25;;;;;;;;;;686889;28;956;-67
2023/12/03 00:47:43;;;;;;;25.57;15.63;;;;;;;;;;684915;28;1545;-67
2023/12/03 00:48:03;;;;;;;24.27;15.00;;;;;;;;;;684077;28;1873;-67
2023/12/03 00:48:23;;;;;;;25.97;15.30;;;;;;;;;;690016;28;789;-67
2023/12/03 00:48:44;;;;;;;25.70;15.60;;;;;;;;;;686847;28;4687;-67
2023/12/03 00:49:04;;;;;;;25.17;15.23;;;;;;;;;;686552;28;915;-68
2023/12/03 00:49:24;;;;;;;23.42;14.65;;;;;;;;;;686753;28;952;-67
2023/12/03 00:49:45;;;;;;;23.87;14.33;;;;;;;;;;688669;28;810;-67
2023/12/03 00:50:05;;;;;;;23.80;14.80;;;;;;;;;;687405;28;1861;-67
2023/12/03 00:50:25;;;;;;;23.63;15.15;;;;;;;;;;689842;28;920;-67
2023/12/03 00:50:46;;;;;;;23.90;15.17;;;;;;;;;;690300;28;923;-67
2023/12/03 00:51:06;;;;;;;26.90;16.03;;;;;;;;;;689264;28;2224;-68
2023/12/03 00:51:26;;;;;;;25.75;15.60;;;;;;;;;;689729;28;1010;-67
2023/12/03 00:51:47;;;;;;;24.00;15.07;;;;;;;;;;689616;28;4264;-67
2023/12/03 00:52:07;;;;;;;25.98;15.52;;;;;;;;;;688906;28;1691;-68
2023/12/03 00:52:27;;;;;;;25.80;15.10;;;;;;;;;;686930;28;777;-68
2023/12/03 00:52:48;;;;;;;24.40;15.30;;;;;;;;;;687271;28;1102;-67
2023/12/03 00:53:08;;;;;;;25.98;15.63;;;;;;;;;;686541;28;2363;-67
2023/12/03 00:53:28;;;;;;;24.60;15.53;;;;;;;;;;687034;28;896;-67
2023/12/03 00:53:49;;;;;;;24.03;15.60;;;;;;;;;;688698;28;896;-68
2023/12/03 00:54:09;;;;;;;23.90;15.05;;;;;;;;;;688788;28;2815;-68
2023/12/03 00:54:29;;;;;;;23.53;15.20;;;;;;;;;;689482;28;920;-67
2023/12/03 00:54:49;;;;;;;23.33;15.13;;;;;;;;;;689291;28;4321;-67
2023/12/03 00:55:10;;;;;;;24.37;15.20;;;;;;;;;;689292;28;1464;-67
2023/12/03 00:55:30;;;;;;;23.77;14.87;;;;;;;;;;689570;28;750;-68
2023/12/03 00:55:50;;;;;;;24.63;14.85;;;;;;;;;;689981;28;887;-68
2023/12/03 00:56:11;;;;;;;26.10;14.83;;;;;;;;;;689411;28;2378;-67
2023/12/03 00:56:31;;;;;;;26.20;15.63;;;;;;;;;;688920;28;912;-67
2023/12/03 00:56:51;;;;;;;24.77;15.07;;;;;;;;;;689289;28;908;-67
2023/12/03 00:57:11;;;;;;;24.53;15.17;;;;;;;;;;689314;28;2693;-67
2023/12/03 00:57:32;;;;;;;24.67;15.03;;;;;;;;;;690453;28;896;-67
2023/12/03 00:57:52;;;;;;;25.35;14.93;;;;;;;;;;690883;28;4425;-67
2023/12/03 00:58:12;;;;;;;23.57;14.93;;;;;;;;;;691676;28;2748;-67
2023/12/03 00:58:33;;;;;;;23.10;15.03;;;;;;;;;;693217;28;1012;-66
2023/12/03 00:58:53;;;;;;;26.60;15.17;;;;;;;;;;691652;28;896;-67
2023/12/03 00:59:13;;;;;;;26.33;15.10;;;;;;;;;;693161;28;1867;-68
2023/12/03 00:59:33;;;;;;;24.30;15.20;;;;;;;;;;692038;28;991;-68
2023/12/03 00:59:54;;;;;;;24.50;15.27;;;;;;;;;;688538;28;837;-68
2023/12/03 01:00:14;;;;;;;24.80;15.30;;;;;;;;;;689813;28;1950;-68
2023/12/03 01:00:34;;;;;;;24.65;14.93;;;;;;;;;;690170;28;951;-67
2023/12/03 01:00:55;;;;;;;23.37;14.93;;;;;;;;;;689026;28;4521;-67
2023/12/03 01:01:15;;;;;;;23.37;15.17;;;;;;;;;;689355;28;1722;-68
2023/12/03 01:01:35;;;;;;;22.77;14.32;;;;;;;;;;690399;28;1021;-67
2023/12/03 01:01:56;;;;;;;23.43;14.10;;;;;;;;;;689589;28;948;-67
2023/12/03 01:02:16;;;;;;;23.80;14.60;;;;;;;;;;689031;28;1478;-68
2023/12/03 01:02:36;;;;;;;25.52;15.25;;;;;;;;;;690619;28;813;-68
2023/12/03 01:02:56;;;;;;;24.20;14.70;;;;;;;;;;689995;28;1034;-68
2023/12/03 01:03:17;;;;;;;24.10;15.13;;;;;;;;;;689078;28;1538;-68
2023/12/03 01:03:37;;;;;;;24.33;14.73;;;;;;;;;;690399;28;920;-67
2023/12/03 01:03:57;;;;;;;25.67;15.10;;;;;;;;;;689136;28;4570;-68
2023/12/03 01:04:18;;;;;;;23.35;14.65;;;;;;;;;;689218;28;2160;-68
2023/12/03 01:04:39;;;;;;;24.48;15.13;;;;;;;;;;690079;28;983;-67
2023/12/03 01:04:59;;;;;;;24.27;14.53;;;;;;;;;;689620;28;859;-67
2023/12/03 01:05:19;;;;;;;22.97;14.10;;;;;;;;;;688653;28;2089;-67
2023/12/03 01:05:39;;;;;;;23.90;14.48;;;;;;;;;;690164;28;979;-67
2023/12/03 01:06:00;;;;;;;23.77;14.57;;;;;;;;;;689837;28;5324;-67
2023/12/03 01:06:20;;;;;;;23.57;14.37;;;;;;;;;;689658;28;2246;-67
2023/12/03 01:06:40;;;;;;;24.38;14.70;;;;;;;;;;688549;28;4267;-67
2023/12/03 01:07:00;;;;;;;25.27;15.37;;;;;;;;;;688931;28;754;-68
2023/12/03 01:07:21;;;;;;;26.07;16.07;;;;;;;;;;689002;28;1063;-68
2023/12/03 01:07:41;;;;;;;23.67;14.93;;;;;;;;;;689912;28;832;-68
2023/12/03 01:08:01;;;;;;;25.47;15.33;;;;;;;;;;689945;28;1299;-68
2023/12/03 01:08:22;;;;;;;24.50;15.07;;;;;;;;;;690240;28;1822;-68
2023/12/03 01:08:42;;;;;;;22.58;14.68;;;;;;;;;;690232;28;850;-69
2023/12/03 01:09:02;;;;;;;22.73;14.40;;;;;;;;;;689949;28;968;-68
2023/12/03 01:09:23;;;;;;;22.70;13.82;;;;;;;;;;689308;28;1846;-68
2023/12/03 01:09:43;;;;;;;23.60;14.37;;;;;;;;;;689437;28;4493;-68
2023/12/03 01:10:03;;;;;;;22.90;14.57;;;;;;;;;;690164;28;888;-68
2023/12/03 01:10:23;;;;;;;22.55;13.98;;;;;;;;;;689703;28;1004;-68
2023/12/03 01:10:44;;;;;;;22.73;13.83;;;;;;;;;;687577;28;932;-68
2023/12/03 01:11:05;;;;;;;24.40;14.60;;;;;;;;;;686367;28;2164;-68
2023/12/03 01:11:25;;;;;;;23.48;14.32;;;;;;;;;;689944;28;821;-68
2023/12/03 01:11:45;;;;;;;24.10;14.07;;;;;;;;;;687679;28;1086;-68
2023/12/03 01:12:06;;;;;;;24.07;14.63;;;;;;;;;;686483;28;2224;-68
2023/12/03 01:12:26;;;;;;;23.52;14.52;;;;;;;;;;687527;28;1032;-67
2023/12/03 01:12:47;;;;;;;23.33;14.50;;;;;;;;;;689055;28;4494;-67
2023/12/03 01:13:07;;;;;;;21.40;13.80;;;;;;;;;;689398;28;1639;-68
2023/12/03 01:13:28;;;;;;;22.47;14.00;;;;;;;;;;689664;28;963;-68
2023/12/03 01:13:48;;;;;;;24.75;14.73;;;;;;;;;;689632;28;861;-68
2023/12/03 01:14:08;;;;;;;25.23;15.00;;;;;;;;;;689594;28;1865;-67
2023/12/03 01:14:29;;;;;;;24.67;14.68;;;;;;;;;;689728;28;940;-68
2023/12/03 01:14:49;;;;;;;22.73;14.37;;;;;;;;;;689955;28;905;-68
2023/12/03 01:15:09;;;;;;;22.10;14.27;;;;;;;;;;689484;28;1288;-68
2023/12/03 01:15:29;;;;;;;22.75;14.18;;;;;;;;;;690194;28;794;-68
2023/12/03 01:15:50;;;;;;;24.23;14.90;;;;;;;;;;689555;28;4292;-68
2023/12/03 01:16:14;;;;;;;23.93;15.23;;;;;;;;;;689291;28;998;-68
2023/12/03 01:16:34;;;;;;;23.38;14.98;;;;;;;;;;689326;28;913;-68
2023/12/03 01:16:54;;;;;;;23.70;15.00;;;;;;;;;;687204;28;1388;-68
2023/12/03 01:17:15;;;;;;;24.10;14.47;;;;;;;;;;686644;28;4178;-68
2023/12/03 01:17:35;;;;;;;21.63;13.60;;;;;;;;;;689842;28;836;-68
2023/12/03 01:17:55;;;;;;;23.93;14.77;;;;;;;;;;689619;28;1097;-67
2023/12/03 01:18:16;;;;;;;24.70;15.10;;;;;;;;;;689271;28;1505;-67
2023/12/03 01:18:36;;;;;;;23.88;14.85;;;;;;;;;;689425;28;861;-67
2023/12/03 01:18:56;;;;;;;25.17;14.90;;;;;;;;;;688975;28;4789;-67
2023/12/03 01:19:17;;;;;;;24.00;14.82;;;;;;;;;;688945;28;2278;-67
2023/12/03 01:19:37;;;;;;;23.87;14.90;;;;;;;;;;689800;28;1371;-67
2023/12/03 01:19:57;;;;;;;25.43;15.10;;;;;;;;;;689969;28;777;-67
2023/12/03 01:20:18;;;;;;;24.75;15.30;;;;;;;;;;688865;28;2186;-68
2023/12/03 01:20:39;;;;;;;22.75;14.82;;;;;;;;;;689691;28;928;-67
2023/12/03 01:20:59;;;;;;;22.40;14.57;;;;;;;;;;689836;28;904;-67
2023/12/03 01:21:19;;;;;;;25.43;15.10;;;;;;;;;;690016;28;1870;-67
2023/12/03 01:21:39;;;;;;;24.73;14.90;;;;;;;;;;689458;28;4389;-68
2023/12/03 01:22:00;;;;;;;23.77;14.60;;;;;;;;;;688405;28;899;-68
2023/12/03 01:22:20;;;;;;;25.00;14.93;;;;;;;;;;688061;28;1583;-68
2023/12/03 01:22:40;;;;;;;23.37;14.53;;;;;;;;;;690127;28;1165;-68
2023/12/03 01:23:01;;;;;;;25.40;14.70;;;;;;;;;;689999;28;1084;-68
2023/12/03 01:23:21;;;;;;;26.73;15.13;;;;;;;;;;689516;28;1721;-68
2023/12/03 01:23:41;;;;;;;25.27;15.00;;;;;;;;;;691457;28;908;-67
2023/12/03 01:24:02;;;;;;;24.33;15.20;;;;;;;;;;690051;28;801;-67
2023/12/03 01:24:22;;;;;;;25.00;14.98;;;;;;;;;;690286;28;1713;-67
2023/12/03 01:24:43;;;;;;;22.83;14.18;;;;;;;;;;689133;28;4364;-67
2023/12/03 01:25:03;;;;;;;24.77;14.47;;;;;;;;;;689732;28;765;-68
2023/12/03 01:25:23;;;;;;;24.65;14.65;;;;;;;;;;688959;28;1938;-68
2023/12/03 01:25:44;;;;;;;24.17;14.60;;;;;;;;;;689861;28;821;-68
2023/12/03 01:26:04;;;;;;;24.27;14.10;;;;;;;;;;689736;28;1155;-68
2023/12/03 01:26:24;;;;;;;25.55;14.50;;;;;;;;;;687264;28;927;-68
2023/12/03 01:26:45;;;;;;;25.17;14.40;;;;;;;;;;686886;28;806;-68
2023/12/03 01:27:06;;;;;;;23.98;14.68;;;;;;;;;;688749;28;1307;-68
2023/12/03 01:27:26;;;;;;;24.73;14.68;;;;;;;;;;689852;28;939;-68
2023/12/03 01:27:46;;;;;;;25.07;14.60;;;;;;;;;;689466;28;4525;-68
2023/12/03 01:28:07;;;;;;;24.23;14.93;;;;;;;;;;688747;28;1492;-67
2023/12/03 01:28:27;;;;;;;24.30;14.50;;;;;;;;;;690081;28;944;-67
2023/12/03 01:28:47;;;;;;;25.67;14.60;;;;;;;;;;689792;28;869;-67
2023/12/03 01:29:07;;;;;;;24.80;14.70;;;;;;;;;;688912;28;2387;-67
2023/12/03 01:29:28;;;;;;;27.23;15.13;;;;;;;;;;689785;28;838;-67
2023/12/03 01:29:48;;;;;;;26.33;15.40;;;;;;;;;;690230;28;947;-67
2023/12/03 01:30:09;;;;;;;26.05;15.15;;;;;;;;;;688584;28;935;-68
2023/12/03 01:30:29;;;;;;;24.35;14.85;;;;;;;;;;689669;28;929;-68
2023/12/03 01:30:49;;;;;;;25.53;14.93;;;;;;;;;;689271;28;4560;-68
2023/12/03 01:31:10;;;;;;;24.85;14.73;;;;;;;;;;688616;28;1901;-68
2023/12/03 01:31:31;;;;;;;28.43;15.97;;;;;;;;;;689681;28;886;-68
2023/12/03 01:31:51;;;;;;;27.07;15.50;;;;;;;;;;690341;28;932;-68
2023/12/03 01:32:11;;;;;;;24.35;14.02;;;;;;;;;;690156;28;1879;-68
2023/12/03 01:32:32;;;;;;;26.13;15.00;;;;;;;;;;690470;28;828;-68
2023/12/03 01:32:52;;;;;;;23.70;14.52;;;;;;;;;;690044;28;943;-68
2023/12/03 01:33:12;;;;;;;24.17;14.73;;;;;;;;;;689242;28;2421;-68
2023/12/03 01:33:32;;;;;;;25.57;14.57;;;;;;;;;;690100;28;778;-68
2023/12/03 01:33:53;;;;;;;28.00;15.35;;;;;;;;;;689469;28;4279;-68
2023/12/03 01:34:13;;;;;;;24.37;14.27;;;;;;;;;;688906;28;991;-68
2023/12/03 01:34:33;;;;;;;25.43;14.80;;;;;;;;;;689629;28;809;-68
2023/12/03 01:34:54;;;;;;;26.23;14.73;;;;;;;;;;690128;28;865;-68
2023/12/03 01:35:16;;;;;;;25.43;14.60;;;;;;;;;;688507;28;1035;-68
2023/12/03 01:35:36;;;;;;;22.90;14.30;;;;;;;;;;688503;28;821;-68
2023/12/03 01:35:56;;;;;;;24.77;14.40;;;;;;;;;;689829;28;3348;-67
2023/12/03 01:36:17;;;;;;;25.13;14.10;;;;;;;;;;688642;28;2240;-67
2023/12/03 01:36:37;;;;;;;24.67;14.17;;;;;;;;;;689611;28;861;-67
2023/12/03 01:36:57;;;;;;;25.15;14.88;;;;;;;;;;689447;28;4392;-67
2023/12/03 01:37:18;;;;;;;23.70;14.40;;;;;;;;;;687560;28;2289;-67
2023/12/03 01:37:38;;;;;;;23.52;13.98;;;;;;;;;;689560;28;956;-67
2023/12/03 01:37:59;;;;;;;22.65;13.80;;;;;;;;;;690032;28;996;-67
2023/12/03 01:38:19;;;;;;;22.90;13.57;;;;;;;;;;689875;28;1614;-68
2023/12/03 01:38:40;;;;;;;22.20;14.07;;;;;;;;;;689941;28;988;-67
2023/12/03 01:39:00;;;;;;;22.95;13.60;;;;;;;;;;690200;28;1371;-67
2023/12/03 01:39:21;;;;;;;23.73;13.65;;;;;;;;;;688676;28;1761;-67
2023/12/03 01:39:41;;;;;;;24.07;13.87;;;;;;;;;;688759;28;4496;-69
2023/12/03 01:40:01;;;;;;;22.77;14.00;;;;;;;;;;689864;28;860;-68
2023/12/03 01:40:22;;;;;;;23.30;13.82;;;;;;;;;;689028;28;1708;-68
2023/12/03 01:40:50;;;;;;;23.83;14.00;;;;;;;;;;689765;28;939;-68
2023/12/03 01:41:11;;;;;;;21.92;14.45;;;;;;;;;;688233;28;2020;-68
2023/12/03 01:41:31;;;;;;;23.23;13.93;;;;;;;;;;689837;28;849;-68
2023/12/03 01:41:52;;;;;;;23.58;14.25;;;;;;;;;;689959;28;853;-68
2023/12/03 01:42:13;;;;;;;24.58;14.50;;;;;;;;;;688384;28;2249;-68
2023/12/03 01:42:33;;;;;;;23.02;13.63;;;;;;;;;;688200;28;818;-68
2023/12/03 01:42:54;;;;;;;22.77;13.80;;;;;;;;;;686403;28;4325;-67
2023/12/03 01:43:14;;;;;;;23.73;14.40;;;;;;;;;;686345;28;1784;-67
2023/12/03 01:43:45;;;;;;;23.13;14.20;;;;;;;;;;687425;28;904;-67
2023/12/03 01:44:06;;;;;;;24.15;14.48;;;;;;;;;;689048;28;1842;-67
2023/12/03 01:44:26;;;;;;;22.20;13.70;;;;;;;;;;691381;28;893;-67
2023/12/03 01:44:46;;;;;;;24.35;14.05;;;;;;;;;;690022;28;1926;-67
2023/12/03 01:45:07;;;;;;;23.30;14.30;;;;;;;;;;688733;28;1784;-67
2023/12/03 01:45:27;;;;;;;23.37;13.97;;;;;;;;;;687285;28;1032;-67
2023/12/03 01:45:47;;;;;;;22.27;13.68;;;;;;;;;;686616;28;4328;-67
2023/12/03 01:46:08;;;;;;;23.40;13.93;;;;;;;;;;685845;28;1853;-67
2023/12/03 01:46:28;;;;;;;22.40;13.53;;;;;;;;;;687803;28;790;-67
2023/12/03 01:46:49;;;;;;;22.52;13.25;;;;;;;;;;686757;28;1610;-67
2023/12/03 01:47:09;;;;;;;23.85;14.00;;;;;;;;;;686112;28;1869;-67
2023/12/03 01:47:29;;;;;;;23.73;14.23;;;;;;;;;;690193;28;873;-67
2023/12/03 01:47:50;;;;;;;23.08;13.80;;;;;;;;;;688868;28;929;-67
2023/12/03 01:48:11;;;;;;;23.73;13.70;;;;;;;;;;688516;28;2243;-67
2023/12/03 01:48:31;;;;;;;23.50;14.18;;;;;;;;;;692586;28;797;-67
2023/12/03 01:48:51;;;;;;;23.30;13.87;;;;;;;;;;689649;28;4221;-67
2023/12/03 01:49:12;;;;;;;21.00;13.30;;;;;;;;;;689578;28;1729;-67
2023/12/03 01:49:32;;;;;;;22.17;14.17;;;;;;;;;;689519;28;1118;-67
2023/12/03 01:49:52;;;;;;;23.05;14.02;;;;;;;;;;689680;28;1629;-67
2023/12/03 01:50:14;;;;;;;21.60;13.53;;;;;;;;;;689558;28;2007;-67
2023/12/03 01:50:34;;;;;;;21.75;13.30;;;;;;;;;;689962;28;925;-67
2023/12/03 01:50:56;;;;;;;22.13;13.53;;;;;;;;;;689692;28;920;-68
2023/12/03 01:51:17;;;;;;;24.50;14.00;;;;;;;;;;688852;28;2133;-68
2023/12/03 01:51:37;;;;;;;23.67;14.13;;;;;;;;;;690317;28;774;-68
2023/12/03 01:51:58;;;;;;;22.27;13.73;;;;;;;;;;689428;28;4399;-68
2023/12/03 01:52:18;;;;;;;22.33;13.43;;;;;;;;;;688515;28;1892;-67
2023/12/03 01:52:39;;;;;;;22.77;13.83;;;;;;;;;;690104;28;927;-67
2023/12/03 01:52:59;;;;;;;22.88;14.00;;;;;;;;;;690283;28;900;-67
2023/12/03 01:53:19;;;;;;;23.00;13.57;;;;;;;;;;689012;28;1499;-67
2023/12/03 01:53:41;;;;;;;22.73;13.53;;;;;;;;;;689920;28;924;-67
2023/12/03 01:54:01;;;;;;;22.13;13.45;;;;;;;;;;689915;28;956;-67
2023/12/03 01:54:23;;;;;;;21.67;13.53;;;;;;;;;;689199;28;1954;-67
2023/12/03 01:54:44;;;;;;;21.42;12.85;;;;;;;;;;689449;28;4720;-67
2023/12/03 01:55:05;;;;;;;23.83;13.77;;;;;;;;;;690152;28;955;-67
2023/12/03 01:55:25;;;;;;;22.73;13.82;;;;;;;;;;689834;28;1558;-67
2023/12/03 01:55:46;;;;;;;22.33;13.70;;;;;;;;;;689758;28;869;-67
2023/12/03 01:56:06;;;;;;;22.37;13.07;;;;;;;;;;689807;28;778;-67
2023/12/03 01:56:26;;;;;;;24.73;13.65;;;;;;;;;;690567;28;1040;-67
2023/12/03 01:56:47;;;;;;;23.27;14.07;;;;;;;;;;686758;28;1462;-68
2023/12/03 01:57:08;;;;;;;22.02;14.02;;;;;;;;;;686001;28;1076;-68
2023/12/03 01:57:29;;;;;;;22.90;13.98;;;;;;;;;;687765;28;880;-67
2023/12/03 01:57:49;;;;;;;21.92;13.55;;;;;;;;;;689114;28;4377;-67
2023/12/03 01:58:10;;;;;;;22.43;13.57;;;;;;;;;;688685;28;1981;-68
2023/12/03 01:58:30;;;;;;;22.75;13.25;;;;;;;;;;690974;28;1067;-67
2023/12/03 01:58:51;;;;;;;22.83;13.73;;;;;;;;;;689208;28;884;-67
2023/12/03 01:59:11;;;;;;;21.77;13.67;;;;;;;;;;688822;28;1754;-67
2023/12/03 01:59:32;;;;;;;20.23;13.40;;;;;;;;;;689919;28;893;-67
2023/12/03 01:59:52;;;;;;;21.83;13.80;;;;;;;;;;690104;28;892;-67
2023/12/03 02:00:13;;;;;;;23.92;14.63;;;;;;;;;;688952;28;969;-67
2023/12/03 02:00:34;;;;;;;24.87;14.53;;;;;;;;;;689932;28;1189;-67
2023/12/03 02:00:57;;;;;;;22.38;13.57;;;;;;;;;;688089;28;4783;-67
2023/12/03 02:01:17;;;;;;;22.43;13.53;;;;;;;;;;686785;28;2321;-67
2023/12/03 02:01:37;;;;;;;24.70;14.10;;;;;;;;;;687587;28;885;-67
2023/12/03 02:01:58;;;;;;;23.43;13.93;;;;;;;;;;687082;28;822;-67
2023/12/03 02:02:18;;;;;;;21.00;13.68;;;;;;;;;;685592;28;2414;-68
2023/12/03 02:02:39;;;;;;;23.33;14.40;;;;;;;;;;685777;28;794;-68
2023/12/03 02:02:59;;;;;;;25.15;14.35;;;;;;;;;;689501;28;876;-68
2023/12/03 02:03:22;;;;;;;23.70;13.98;;;;;;;;;;689761;28;1801;-68
2023/12/03 02:03:42;;;;;;;23.00;14.10;;;;;;;;;;689437;28;4517;-68